Time,TemperatureF,DewpointF,PressureIn,WindDirection,WindDirectionDegrees,WindSpeedMPH,WindSpeedGustMPH,Humidity,HourlyPrecipIn,Conditions,Clouds,dailyrainin,SoftwareType,DateUTC
2013-11-11 00:13:00,42.0,35.0,30.33,WNW,284,0.0,0.0,75,0.00,,,0.00,,2013-11-11 05:13:00,
2013-11-11 00:23:00,42.0,35.0,30.33,WNW,284,0.0,0.0,75,0.00,,,0.00,,2013-11-11 05:23:00,
2013-11-11 00:34:00,42.0,35.0,30.33,WNW,284,0.0,0.0,75,0.00,,,0.00,,2013-11-11 05:34:00,
2013-11-11 01:42:00,38.0,35.0,30.33,WNW,284,0.0,0.0,88,0.00,,,0.00,,2013-11-11 06:42:00,
2013-11-11 01:52:00,38.0,35.0,30.33,WNW,284,0.0,0.0,88,0.00,,,0.00,,2013-11-11 06:52:00,
2013-11-11 02:02:00,38.0,35.0,30.33,WNW,284,0.0,0.0,88,0.00,,,0.00,,2013-11-11 07:02:00,
2013-11-11 03:12:00,36.0,34.0,30.32,WNW,284,0.0,0.0,91,0.00,,,0.00,,2013-11-11 08:12:00,
2013-11-11 03:22:00,36.0,34.0,30.32,WNW,284,0.0,0.0,91,0.00,,,0.00,,2013-11-11 08:22:00,
2013-11-11 03:32:00,36.0,34.0,30.32,WNW,284,0.0,0.0,91,0.00,,,0.00,,2013-11-11 08:32:00,
2013-11-11 05:53:00,33.0,32.0,30.32,WNW,284,0.0,0.0,97,0.00,,,0.00,,2013-11-11 10:53:00,
2013-11-11 06:03:00,33.0,32.0,30.32,WNW,284,0.0,0.0,97,0.00,,,0.00,,2013-11-11 11:03:00,
2013-11-11 06:12:00,33.0,32.0,30.32,WNW,284,0.0,0.0,97,0.00,,,0.00,,2013-11-11 11:12:00,
2013-11-11 06:21:00,33.0,32.0,30.32,WNW,284,0.0,0.0,97,0.00,,,0.00,,2013-11-11 11:21:00,
2013-11-11 07:12:00,32.0,32.0,30.32,WNW,284,0.0,0.0,100,0.00,,,0.00,,2013-11-11 12:12:00,
2013-11-11 07:22:00,32.0,32.0,30.32,WNW,284,0.0,0.0,100,0.00,,,0.00,,2013-11-11 12:22:00,
2013-11-11 07:32:00,32.0,32.0,30.32,WNW,284,0.0,0.0,100,0.00,,,0.00,,2013-11-11 12:32:00,
2013-11-11 07:52:00,32.0,32.0,30.32,WNW,284,0.0,0.0,100,0.00,,,0.00,,2013-11-11 12:52:00,
2013-11-11 08:11:00,32.0,32.0,30.32,WNW,284,0.0,0.0,100,0.00,,,0.00,,2013-11-11 13:11:00,
2013-11-11 08:22:00,32.0,32.0,30.32,WNW,284,0.0,0.0,100,0.00,,,0.00,,2013-11-11 13:22:00,
2013-11-11 09:11:00,37.0,36.0,30.34,WNW,284,0.0,0.0,96,0.00,,,0.00,,2013-11-11 14:11:00,
2013-11-11 09:22:00,37.0,36.0,30.34,WNW,284,0.0,0.0,96,0.00,,,0.00,,2013-11-11 14:22:00,
2013-11-11 10:11:00,43.0,39.0,30.34,WNW,284,0.0,0.0,86,0.00,,,0.00,,2013-11-11 15:11:00,
2013-11-11 10:22:00,43.0,39.0,30.34,WNW,284,0.0,0.0,86,0.00,,,0.00,,2013-11-11 15:22:00,
2013-11-11 11:23:00,54.0,35.0,30.32,SSE,157,0.0,5.0,49,0.00,,,0.00,,2013-11-11 16:23:00,
2013-11-11 11:42:00,54.0,34.0,30.32,SSE,157,0.0,0.0,46,0.00,,,0.00,,2013-11-11 16:42:00,
2013-11-11 11:53:00,54.0,34.0,30.32,SSE,157,0.0,0.0,46,0.00,,,0.00,,2013-11-11 16:53:00,
2013-11-11 12:03:00,54.0,34.0,30.32,SSE,157,0.0,0.0,46,0.00,,,0.00,,2013-11-11 17:03:00,
2013-11-11 12:42:00,58.0,33.0,30.28,East,95,0.0,3.0,38,0.00,,,0.00,,2013-11-11 17:42:00,
2013-11-11 12:52:00,58.0,33.0,30.28,East,95,0.0,3.0,38,0.00,,,0.00,,2013-11-11 17:52:00,
2013-11-11 13:02:00,58.0,33.0,30.28,East,95,0.0,3.0,38,0.00,,,0.00,,2013-11-11 18:02:00,
2013-11-11 13:23:00,61.0,30.0,30.25,ESE,107,0.0,5.0,31,0.00,,,0.00,,2013-11-11 18:23:00,
2013-11-11 13:32:00,61.0,30.0,30.25,ESE,107,0.0,5.0,31,0.00,,,0.00,,2013-11-11 18:32:00,
2013-11-11 13:42:00,61.0,30.0,30.25,ESE,107,0.0,5.0,31,0.00,,,0.00,,2013-11-11 18:42:00,
2013-11-11 13:52:00,61.0,30.0,30.25,ESE,107,0.0,5.0,31,0.00,,,0.00,,2013-11-11 18:52:00,
2013-11-11 14:12:00,63.0,29.0,30.22,SSW,206,0.0,0.0,28,0.00,,,0.00,,2013-11-11 19:12:00,
2013-11-11 14:22:00,63.0,29.0,30.22,SSW,206,0.0,0.0,28,0.00,,,0.00,,2013-11-11 19:22:00,
2013-11-11 14:53:00,64.0,29.0,30.21,SSW,202,1.0,7.0,27,0.00,,,0.00,,2013-11-11 19:53:00,
2013-11-11 15:02:00,64.0,29.0,30.21,SSW,202,1.0,7.0,27,0.00,,,0.00,,2013-11-11 20:02:00,
2013-11-11 15:22:00,63.0,31.0,30.20,South,186,1.0,6.0,30,0.00,,,0.00,,2013-11-11 20:22:00,
2013-11-11 15:32:00,63.0,31.0,30.20,South,186,1.0,6.0,30,0.00,,,0.00,,2013-11-11 20:32:00,
2013-11-11 15:52:00,63.0,31.0,30.20,South,186,1.0,6.0,30,0.00,,,0.00,,2013-11-11 20:52:00,
2013-11-11 16:12:00,63.0,31.0,30.19,ESE,106,0.0,0.0,30,0.00,,,0.00,,2013-11-11 21:12:00,
2013-11-11 16:22:00,63.0,31.0,30.19,ESE,106,0.0,0.0,30,0.00,,,0.00,,2013-11-11 21:22:00,
2013-11-11 16:34:00,63.0,31.0,30.19,ESE,106,0.0,0.0,30,0.00,,,0.00,,2013-11-11 21:34:00,
2013-11-11 17:14:00,59.0,34.0,30.18,SSE,151,0.0,0.0,39,0.00,,,0.00,,2013-11-11 22:14:00,
2013-11-11 17:24:00,59.0,34.0,30.18,SSE,151,0.0,0.0,39,0.00,,,0.00,,2013-11-11 22:24:00,
2013-11-11 17:34:00,59.0,34.0,30.18,SSE,151,0.0,0.0,39,0.00,,,0.00,,2013-11-11 22:34:00,
2013-11-11 18:43:00,51.0,37.0,30.17,SSE,151,0.0,0.0,58,0.00,,,0.00,,2013-11-11 23:43:00,
2013-11-11 18:53:00,51.0,37.0,30.17,SSE,151,0.0,0.0,58,0.00,,,0.00,,2013-11-11 23:53:00,
2013-11-11 19:12:00,50.0,38.0,30.18,SSE,151,0.0,0.0,63,0.00,,,0.00,,2013-11-12 00:12:00,
2013-11-11 19:22:00,50.0,38.0,30.18,SSE,151,0.0,0.0,63,0.00,,,0.00,,2013-11-12 00:22:00,
2013-11-11 19:32:00,50.0,38.0,30.18,SSE,151,0.0,0.0,63,0.00,,,0.00,,2013-11-12 00:32:00,
2013-11-11 20:11:00,47.0,38.0,30.18,SSE,151,0.0,0.0,70,0.00,,,0.00,,2013-11-12 01:11:00,
2013-11-11 20:22:00,47.0,38.0,30.18,SSE,151,0.0,0.0,70,0.00,,,0.00,,2013-11-12 01:22:00,
2013-11-11 20:32:00,47.0,38.0,30.18,SSE,151,0.0,0.0,70,0.00,,,0.00,,2013-11-12 01:32:00,
2013-11-11 21:22:00,47.0,41.0,30.17,SSE,151,0.0,0.0,78,0.00,,,0.00,,2013-11-12 02:22:00,
2013-11-11 21:42:00,47.0,40.0,30.18,SSE,151,0.0,0.0,77,0.00,,,0.00,,2013-11-12 02:42:00,
2013-11-11 21:52:00,47.0,40.0,30.18,SSE,151,0.0,0.0,77,0.00,,,0.00,,2013-11-12 02:52:00,
2013-11-11 22:11:00,47.0,40.0,30.18,SSE,151,0.0,0.0,77,0.00,,,0.00,,2013-11-12 03:11:00,
2013-11-11 22:22:00,47.0,40.0,30.18,SSE,151,0.0,0.0,77,0.00,,,0.00,,2013-11-12 03:22:00,
2013-11-11 22:34:00,47.0,40.0,30.18,SSE,151,0.0,0.0,77,0.00,,,0.00,,2013-11-12 03:34:00,
2013-11-11 22:54:00,48.0,42.0,30.19,SSE,151,0.0,0.0,79,0.00,,,0.00,,2013-11-12 03:54:00,
2013-11-11 23:14:00,48.0,43.0,30.19,SSE,151,0.0,0.0,82,0.00,,,0.00,,2013-11-12 04:14:00,
2013-11-11 23:24:00,48.0,43.0,30.19,SSE,151,0.0,0.0,82,0.00,,,0.00,,2013-11-12 04:24:00,
2013-11-11 23:33:00,48.0,43.0,30.19,SSE,151,0.0,0.0,82,0.00,,,0.00,,2013-11-12 04:33:00,
2013-11-11 23:53:00,47.0,42.0,30.18,SSE,151,0.0,0.0,82,0.00,,,0.00,,2013-11-12 04:53:00,